Terminal Aerodrome Forecast
Issued by NWS Memphis, TN

Home | Current Version | Previous Version | Text Only | Print | Product List | Glossary On
Versions: 1 2 3 4 5 6 7 8 9 10 11 12 13 14 15 16 17 18 19 20 21 22 23 24 25
000
FTUS44 KMEG 290902 AAA
TAFMEM
TAF AMD
KMEM 290902Z 2909/3006 VRB03KT P6SM SCT150
     FM291500 31007KT P6SM SCT045
     FM291800 33007KT P6SM VCTS BKN045CB
     FM300200 02003KT P6SM SCT045=

USA.gov is the U.S. government's official web portal to all federal, state and local government web resources and services.